Metar Cercanos

 

LEPA - Palma De Mallorc, Spain
Distance from station: ONO 38km
Actualización: 16/08/2018 22:00
Few Clouds
Few Clouds
 Viento del S
Viento: S 6 km/h
Temperatura: 27°C
Indice Calor: 29°C
Rocío: 22°C
Humedad: 74%
Barómetro: 1015 hPa
Clouds: Few Clouds
Visibility: 10 km
Cloud details: Few Clouds 762 m
2018/08/16 20:00 LEPA 162000Z 17003KT 140V200 9999 FEW025 27/22 Q1015 NOSIG
LEMH - Mahon/Menorca Is, Spain
Distance from station: ENE 105km
Actualización: 16/08/2018 22:00
Few Clouds
Few Clouds
 Viento del varies
Viento: varies 4 km/h
Temperatura: 24°C
Rocío: 19°C
Humedad: 74%
Barómetro: 1015 hPa
Clouds: Few Clouds
Visibility: 10 km
Cloud details: Few Clouds 762 m
2018/08/16 20:00 LEMH 162000Z VRB02KT 9999 FEW025 24/19 Q1015
 
LEIB - Ibiza/Es Codola, Spain
Distance from station: OSO 165km
Actualización: 16/08/2018 22:00
Few Clouds
Few Clouds
 Viento del varies
Viento: varies 4 km/h
Temperatura: 26°C
Rocío: 20°C
Humedad: 70%
Barómetro: 1014 hPa
Clouds: Few Clouds
Visibility: 10 km
Cloud details: Few Clouds 914 m
2018/08/16 20:00 LEIB 162000Z VRB02KT 9999 FEW030 26/20 Q1014 NOSIG
LEBL - Barcelona Airpor, Spain
Distance from station: NNO 225km
Actualización: 16/08/2018 22:00
Despejado
Despejado
 Viento del SO
Viento: SO 11 km/h
Temperatura: 26°C
Rocío: 22°C
Humedad: 79%
Barómetro: 1015 hPa
Resumen: Despejado
Visibility: greater than 10 km
2018/08/16 20:00 LEBL 162000Z 23006KT CAVOK 26/22 Q1015 NOSIG
 
LEVC - Valencia (civ/Mi, Spain
Distance from station: NO 188km
Actualización: 16/08/2018 22:00
Few Clouds
Few Clouds
 Viento del varies
Viento: varies 4 km/h
Temperatura: 28°C
Indice Calor: 29°C
Rocío: 18°C
Humedad: 55%
Barómetro: 1014 hPa
Clouds: Few Clouds
Visibility: 10 km
Cloud details: Few Clouds 1829 m
2018/08/16 20:00 LEVC 162000Z VRB02KT 9999 FEW060 28/18 Q1014 NOSIG
LEGE - Gerona/Costa Bra, Spain
Distance from station: N 276km
Actualización: 16/08/2018 22:00
Few Clouds
Few Clouds
 Viento del calm
Viento: Calma
Temperatura: 24°C
Rocío: 19°C
Humedad: 74%
Barómetro: 1015 hPa
Clouds: Few Clouds
Visibility: 10 km
Cloud details: Few Clouds 1829 m
2018/08/16 20:00 LEGE 162000Z 00000KT 9999 FEW060 24/19 Q1015
 
LEAL - Alicante/El Alte, Spain
Distance from station: OSO 344km
Actualización: 16/08/2018 22:00
Few Clouds
Few Clouds
 Viento del varies
Viento: varies 4 km/h
Temperatura: 23°C
Rocío: 19°C
Humedad: 78%
Barómetro: 1015 hPa
Clouds: Few Clouds
Visibility: 10 km
Cloud details: Few Clouds 671 m
2018/08/16 20:00 LEAL 162000Z VRB02KT 9999 FEW022 23/19 Q1015 NOSIG
LEAM - Almeria Airport, Spain
Distance from station: SSO 56km
Actualización: 16/08/2018 22:00
Despejado
Despejado
 Viento del SSO
Viento: SSO 9 km/h
Temperatura: 26°C
Rocío: 22°C
Humedad: 79%
Barómetro: 1014 hPa
Resumen: Despejado
Visibility: greater than 10 km
2018/08/16 20:00 LEAM 162000Z 21005KT CAVOK 26/22 Q1014
 
LEZG - Zaragoza (mil/Ci, Spain
Distance from station: NO 431km
Actualización: 16/08/2018 22:15
Thunderstorm rain, Cubierto
Thunderstorm rain, Cubierto
 Viento del O
Viento: O 35 km/h
Temperatura: 22°C
Rocío: 18°C
Humedad: 78%
Barómetro: 1016 hPa
Resumen: Thunderstorm Rain
Clouds: Cubierto
Visibility: 10 km
Cloud details: Parcialmente nuboso 1676 m
Cubierto 1829 m
2018/08/16 20:15 LEZG 162015Z 28019KT 9999 TSRA SCT055CB OVC060 22/18 Q1016
LEMD - Madrid/Barajas, Spain
Distance from station: ONO 234km
Actualización: 16/08/2018 22:00
Despejado
Despejado
 Viento del S
Viento: S 13 km/h
Temperatura: 27°C
Rocío: 12°C
Humedad: 39%
Barómetro: 1015 hPa
Resumen: Despejado
Visibility: greater than 10 km
2018/08/16 20:00 LEMD 162000Z 19007KT 150V210 CAVOK 27/12 Q1015 NOSIG
 
LEGR - Granada Airport, Spain
Distance from station: OSO 62km
Actualización: 16/08/2018 22:00
Lluvia débil, Muy nuboso
Lluvia débil, Muy nuboso
 Viento del varies
Viento: varies 4 km/h
Temperatura: 22°C
Rocío: 16°C
Humedad: 69%
Barómetro: 1018 hPa
Resumen: Lluvia débil
Clouds: Muy nuboso
Visibility: 10 km
Cloud details: Parcialmente nuboso 1067 m
Muy nuboso 1676 m
2018/08/16 20:00 LEGR 162000Z VRB02KT 9999 -RA SCT035 BKN055 22/16 Q1018
LEMG - Malaga (civ/Mil), Spain
Distance from station: OSO 227km
Actualización: 16/08/2018 22:00
Few Clouds
Few Clouds
 Viento del ESE
Viento: ESE 9 km/h, Racha: 30 km/h
Temperatura: 25°C
Rocío: 20°C
Humedad: 74%
Barómetro: 1015 hPa
Clouds: Few Clouds
Visibility: 10 km
Cloud details: Few Clouds 1219 m
2018/08/16 20:00 LEMG 162000Z 11005G16KT 040V150 9999 FEW040TCU 25/20 Q1015 NOSIG
 
LEZL - Sevilla (civ/Mil, Spain
Distance from station: S 318km
Actualización: 16/08/2018 22:00
Despejado
Despejado
 Viento del SO
Viento: SO 19 km/h
Temperatura: 25°C
Rocío: 15°C
Humedad: 54%
Barómetro: 1015 hPa
Resumen: Despejado
Visibility: greater than 10 km
2018/08/16 20:00 LEZL 162000Z 22010KT CAVOK 25/15 Q1015 NOSIG
LEVT - Vitoria, Spain
Distance from station: NO 226km
Actualización: 16/08/2018 22:00
Lluvia débil, Muy nuboso
Lluvia débil, Muy nuboso
 Viento del N
Viento: N 13 km/h
Temperatura: 18°C
Rocío: 16°C
Humedad: 88%
Barómetro: 1020 hPa
Resumen: Lluvia débil
Clouds: Muy nuboso
Visibility: 7 km
Cloud details: Parcialmente nuboso 457 m
Muy nuboso 762 m
2018/08/16 20:00 LEVT 162000Z 35007KT 310V030 7000 -RA SCT015 BKN025 18/16 Q1020
 
LEBB - Bilbao/Sondica, Spain
Distance from station: NNO 235km
Actualización: 16/08/2018 22:00
Muy nuboso
Muy nuboso
 Viento del NO
Viento: NO 7 km/h
Temperatura: 21°C
Rocío: 19°C
Humedad: 88%
Barómetro: 1020 hPa
Clouds: Muy nuboso
Visibility: 10 km
Cloud details: Few Clouds 610 m
Parcialmente nuboso 914 m
Muy nuboso 1372 m
2018/08/16 20:00 LEBB 162000Z 31004KT 9999 FEW020 SCT030 BKN045 21/19 Q1020 NOSIG
LESO - San Sebastian/Fu, Spain
Distance from station: N 231km
Actualización: 16/08/2018 22:00
Muy nuboso
Muy nuboso
 Viento del varies
Viento: varies 2 km/h
Temperatura: 23°C
Rocío: 19°C
Humedad: 78%
Barómetro: 1019 hPa
Clouds: Muy nuboso
Visibility: 10 km
Cloud details: Few Clouds 518 m
Parcialmente nuboso 610 m
Muy nuboso 1006 m
2018/08/16 20:00 LESO 162000Z VRB01KT 9999 FEW017 SCT020 BKN033 23/19 Q1019
 
LEVD - Valladolid(Mil/C, Spain
Distance from station: ONO 239km
Actualización: 16/08/2018 21:30
Despejado
Despejado
 Viento del ENE
Viento: ENE 28 km/h
Temperatura: 23°C
Rocío: 12°C
Humedad: 50%
Barómetro: 1017 hPa
Resumen: Despejado
Visibility: greater than 10 km
2018/08/16 19:30 LEVD 161930Z 06015KT CAVOK 23/12 Q1017
LESA - Salamanca (civ/M, Spain
Distance from station: ONO 349km
Actualización: 16/08/2018 22:00
Despejado
Despejado
 Viento del NO
Viento: NO 11 km/h
Temperatura: 24°C
Rocío: 6°C
Humedad: 31%
Barómetro: 1016 hPa
Clouds: Despejado
Visibility: 10 km
2018/08/16 20:00 LESA 162000Z AUTO 32006KT 9999 NCD 24/06 Q1016
 
LEXJ - Santander/Paraya, Spain
Distance from station: NNO 247km
Actualización: 16/08/2018 22:00
Muy nuboso
Muy nuboso
 Viento del O
Viento: O 7 km/h
Temperatura: 21°C
Rocío: 18°C
Humedad: 83%
Barómetro: 1020 hPa
Clouds: Muy nuboso
Visibility: 10 km
Cloud details: Muy nuboso 732 m
Muy nuboso 1280 m
2018/08/16 20:00 LEXJ 162000Z 27004KT 9999 BKN024 BKN042 21/18 Q1020
LEAS - Asturias/Aviles, Spain
Distance from station: NO 214km
Actualización: 16/08/2018 22:13
Muy nuboso
Muy nuboso
 Viento del NO
Viento: NO 9 km/h
Temperatura: 19°C
Rocío: 18°C
Humedad: 94%
Barómetro: 1021 hPa
Clouds: Muy nuboso
Visibility: 10 km
Cloud details: Few Clouds 122 m
Parcialmente nuboso 335 m
Muy nuboso 1676 m
2018/08/16 20:13 LEAS 162013Z 32005KT 290V010 9999 FEW004 SCT011 BKN055 19/18 Q1021 TEMPO 3000 -DZ BKN004
 
LECO - La Coruna/Alvedr, Spain
Distance from station: ONO 222km
Actualización: 16/08/2018 22:00
Muy nuboso
Muy nuboso
 Viento del N
Viento: N 13 km/h
Temperatura: 19°C
Rocío: 16°C
Humedad: 83%
Barómetro: 1021 hPa
Clouds: Muy nuboso
Visibility: 10 km
Cloud details: Parcialmente nuboso 518 m
Muy nuboso 1097 m
2018/08/16 20:00 LECO 162000Z 36007KT 9999 SCT017 BKN036 19/16 Q1021 TEMPO 3000 -DZ BKN010
LEVX - Vigo/Peinador, Spain
Distance from station: O 214km
Actualización: 16/08/2018 22:00
Few Clouds
Few Clouds
 Viento del NNE
Viento: NNE 26 km/h
Temperatura: 20°C
Rocío: 16°C
Humedad: 78%
Barómetro: 1019 hPa
Clouds: Few Clouds
Visibility: 10 km
Cloud details: Few Clouds 914 m
2018/08/16 20:00 LEVX 162000Z 02014KT 340V080 9999 FEW030 20/16 Q1019 NOSIG